createdAt,value
2022-09-04T00:00:12.474Z,15.02
2022-09-04T00:02:48.339Z,13.82
2022-09-04T00:05:24.008Z,13.95
2022-09-04T00:08:29.558Z,13.30
2022-09-04T00:11:29.377Z,12.37
2022-09-04T00:14:14.583Z,13.32
2022-09-04T00:16:51.086Z,13.80
2022-09-04T00:19:41.277Z,13.82
2022-09-04T00:22:52.551Z,13.98
2022-09-04T00:25:47.407Z,12.07
2022-09-04T00:28:37.044Z,13.65
2022-09-04T00:31:13.241Z,13.00
2022-09-04T00:33:54.855Z,13.20
2022-09-04T00:36:24.144Z,12.75
2022-09-04T00:39:03.227Z,13.50
2022-09-04T00:41:37.713Z,13.95
2022-09-04T00:44:32.324Z,12.85
2022-09-04T00:47:28.036Z,12.73
2022-09-04T00:50:07.700Z,12.18
2022-09-04T00:52:40.809Z,13.18
2022-09-04T00:55:29.326Z,12.98
2022-09-04T00:57:59.494Z,11.48
2022-09-04T01:00:28.021Z,12.35
2022-09-04T01:03:44.437Z,12.95
2022-09-04T01:06:29.510Z,12.10
2022-09-04T01:09:25.165Z,12.90
2022-09-04T01:12:26.548Z,12.63
2022-09-04T01:15:19.707Z,12.13
2022-09-04T01:18:08.090Z,13.43
2022-09-04T01:20:56.433Z,12.80
2022-09-04T01:23:41.172Z,11.57
2022-09-04T01:26:13.953Z,11.05
2022-09-04T01:28:53.059Z,11.45
2022-09-04T01:31:44.640Z,11.63
2022-09-04T01:34:28.180Z,11.73
2022-09-04T01:37:05.180Z,11.40
2022-09-04T01:39:35.833Z,11.95
2022-09-04T01:42:14.712Z,11.93
2022-09-04T01:44:42.602Z,11.93
2022-09-04T01:47:17.958Z,11.90
2022-09-04T01:49:57.532Z,12.63
2022-09-04T01:52:45.986Z,12.73
2022-09-04T01:55:32.811Z,13.25
2022-09-04T01:58:17.655Z,11.32
2022-09-04T02:01:03.646Z,12.48
2022-09-04T02:03:54.186Z,11.85
2022-09-04T02:06:22.184Z,12.65
2022-09-04T02:09:11.654Z,12.68
2022-09-04T02:11:48.988Z,13.07
2022-09-04T02:14:40.827Z,11.95
2022-09-04T02:17:47.700Z,11.68
2022-09-04T02:20:28.016Z,12.13
2022-09-04T02:23:00.025Z,12.40
2022-09-04T02:25:45.190Z,12.70
2022-09-04T02:28:27.196Z,13.00
2022-09-04T02:31:13.044Z,11.20
2022-09-04T02:33:49.458Z,12.37
2022-09-04T02:36:23.406Z,12.00
2022-09-04T02:39:02.719Z,12.05
2022-09-04T02:41:34.983Z,12.63
2022-09-04T02:44:27.461Z,12.43
2022-09-04T02:47:12.401Z,12.52
2022-09-04T02:49:58.297Z,12.45
2022-09-04T02:53:03.359Z,12.93
2022-09-04T02:55:55.193Z,11.05
2022-09-04T02:58:44.185Z,11.80
2022-09-04T03:01:23.324Z,11.50
2022-09-04T03:04:08.808Z,12.25
2022-09-04T03:06:48.828Z,11.43
2022-09-04T03:09:23.770Z,11.70
2022-09-04T03:12:06.345Z,11.20
2022-09-04T03:14:43.317Z,11.25
2022-09-04T03:17:23.690Z,12.57
2022-09-04T03:20:02.698Z,14.57
2022-09-04T03:22:40.850Z,12.90
2022-09-04T03:25:11.042Z,13.73
2022-09-04T03:27:38.134Z,14.80
2022-09-04T03:30:09.590Z,13.55
2022-09-04T03:32:58.527Z,14.73
2022-09-04T03:35:32.039Z,13.43
2022-09-04T03:38:33.009Z,13.55
2022-09-04T03:41:18.224Z,13.57
2022-09-04T03:44:00.866Z,14.57
2022-09-04T03:46:33.363Z,14.52
2022-09-04T03:49:19.144Z,13.62
2022-09-04T03:52:05.640Z,13.50
2022-09-04T03:54:51.062Z,13.10
2022-09-04T03:57:49.375Z,13.20
2022-09-04T04:00:21.671Z,13.70
2022-09-04T04:03:19.791Z,13.55
2022-09-04T04:06:16.044Z,13.07
2022-09-04T04:09:19.298Z,14.45
2022-09-04T04:12:03.832Z,11.55
2022-09-04T04:14:42.105Z,13.10
2022-09-04T04:17:27.758Z,11.73
2022-09-04T04:20:16.818Z,12.30
2022-09-04T04:23:17.855Z,12.43
2022-09-04T04:26:14.145Z,11.18
2022-09-04T04:29:26.785Z,10.70
2022-09-04T04:32:13.381Z,11.25
2022-09-04T04:35:18.104Z,10.77
2022-09-04T04:38:07.767Z,9.98
2022-09-04T04:40:45.347Z,10.25
2022-09-04T04:43:50.358Z,9.98
2022-09-04T04:46:35.324Z,9.40
2022-09-04T04:49:30.653Z,9.43
2022-09-04T04:52:28.779Z,9.07
2022-09-04T04:55:31.391Z,9.93
2022-09-04T05:00:32.210Z,8.48
2022-09-04T05:03:35.418Z,8.18
2022-09-04T05:06:15.937Z,7.32
2022-09-04T05:08:49.402Z,7.80
2022-09-04T05:11:25.446Z,7.53
2022-09-04T05:14:06.843Z,7.95
2022-09-04T05:16:58.414Z,7.80
2022-09-04T05:19:29.511Z,7.40
2022-09-04T05:22:21.035Z,8.52
2022-09-04T05:25:00.234Z,7.07
2022-09-04T05:28:04.527Z,12.13
2022-09-04T05:30:47.698Z,16.37
2022-09-04T05:33:33.977Z,8.45
2022-09-04T05:36:21.182Z,6.53
2022-09-04T05:38:57.315Z,6.18
2022-09-04T05:41:29.855Z,6.12
2022-09-04T05:44:32.108Z,6.32
2022-09-04T05:47:20.784Z,5.32
2022-09-04T05:49:50.925Z,5.57
2022-09-04T05:52:29.987Z,5.93
2022-09-04T05:55:32.169Z,6.15
2022-09-04T05:58:25.976Z,5.10
2022-09-04T06:01:08.415Z,5.53
2022-09-04T06:03:47.456Z,6.18
2022-09-04T06:06:22.872Z,5.00
2022-09-04T06:09:02.058Z,4.85
2022-09-04T06:11:48.580Z,4.25
2022-09-04T06:14:24.484Z,4.07
2022-09-04T06:17:25.716Z,4.10
2022-09-04T06:20:10.274Z,3.22
2022-09-04T06:23:02.963Z,4.28
2022-09-04T06:25:39.312Z,2.80
2022-09-04T06:28:09.405Z,2.60
2022-09-04T06:31:29.459Z,2.83
2022-09-04T06:34:22.411Z,3.05
2022-09-04T06:37:03.079Z,3.10
2022-09-04T06:39:48.645Z,3.22
2022-09-04T06:42:41.157Z,3.80
2022-09-04T06:45:23.770Z,3.45
2022-09-04T06:48:22.556Z,3.53
2022-09-04T06:51:15.899Z,3.75
2022-09-04T06:53:50.633Z,3.58
2022-09-04T06:56:37.522Z,4.03
2022-09-04T06:59:24.467Z,4.00
2022-09-04T07:02:29.097Z,4.62
2022-09-04T07:05:10.010Z,4.03
2022-09-04T07:07:59.926Z,4.15
2022-09-04T07:10:34.509Z,4.10
2022-09-04T07:13:23.596Z,4.00
2022-09-04T07:15:57.027Z,3.47
2022-09-04T07:18:52.005Z,3.95
2022-09-04T07:21:31.024Z,3.75
2022-09-04T07:24:03.704Z,3.40
2022-09-04T07:26:42.718Z,3.65
2022-09-04T07:29:30.905Z,3.85
2022-09-04T07:32:15.543Z,3.35
2022-09-04T07:35:00.862Z,3.75
2022-09-04T07:37:47.178Z,3.50
2022-09-04T07:40:23.180Z,4.15
2022-09-04T07:43:08.154Z,3.62
2022-09-04T07:45:39.228Z,3.85
2022-09-04T07:48:17.734Z,3.97
2022-09-04T07:51:04.683Z,3.30
2022-09-04T07:53:56.622Z,3.17
2022-09-04T07:56:35.436Z,2.92
2022-09-04T07:59:36.120Z,2.60
2022-09-04T08:02:19.266Z,3.15
2022-09-04T08:05:27.242Z,2.95
2022-09-04T08:08:12.046Z,2.87
2022-09-04T08:11:10.039Z,3.03
2022-09-04T08:14:10.053Z,3.00
2022-09-04T08:17:24.493Z,3.10
2022-09-04T08:20:02.321Z,2.53
2022-09-04T08:22:40.224Z,2.22
2022-09-04T08:25:20.351Z,2.25
2022-09-04T08:28:17.660Z,2.37
2022-09-04T08:30:56.540Z,2.45
2022-09-04T08:33:23.503Z,2.70
2022-09-04T08:36:03.147Z,2.70
2022-09-04T08:38:42.425Z,2.58
2022-09-04T08:41:31.043Z,1.87
2022-09-04T08:44:27.009Z,2.00
2022-09-04T08:47:12.617Z,2.35
2022-09-04T08:50:07.801Z,3.10
2022-09-04T08:53:04.037Z,2.28
2022-09-04T08:55:43.215Z,1.90
2022-09-04T08:58:34.711Z,2.10
2022-09-04T09:03:48.735Z,2.08
2022-09-04T09:06:28.037Z,2.17
2022-09-04T09:09:27.790Z,2.15
2022-09-04T09:12:26.262Z,2.15
2022-09-04T09:15:07.519Z,2.08
2022-09-04T09:17:39.986Z,1.62
2022-09-04T09:20:29.780Z,1.75
2022-09-04T09:23:26.250Z,2.40
2022-09-04T09:26:13.834Z,2.22
2022-09-04T09:29:02.138Z,2.30
2022-09-04T09:31:43.046Z,2.47
2022-09-04T09:34:25.737Z,2.30
2022-09-04T09:37:02.594Z,2.40
2022-09-04T09:39:42.963Z,2.78
2022-09-04T09:42:40.739Z,2.10
2022-09-04T09:45:13.812Z,2.00
2022-09-04T09:48:10.972Z,2.00
2022-09-04T09:51:06.296Z,2.10
2022-09-04T09:53:46.886Z,1.90
2022-09-04T09:56:36.046Z,2.08
2022-09-04T09:59:41.383Z,2.20
2022-09-04T10:02:17.746Z,2.00
2022-09-04T10:05:13.701Z,2.12
2022-09-04T10:07:43.433Z,1.83
2022-09-04T10:10:32.688Z,1.90
2022-09-04T10:13:15.229Z,2.00
2022-09-04T10:16:12.819Z,1.73
2022-09-04T10:19:04.765Z,1.95
2022-09-04T10:24:55.601Z,1.73
2022-09-04T10:27:29.326Z,1.80
2022-09-04T10:30:14.209Z,2.10
2022-09-04T10:33:11.518Z,2.20
2022-09-04T10:35:58.253Z,1.62
2022-09-04T10:38:28.003Z,2.20
2022-09-04T10:41:19.747Z,2.12
2022-09-04T10:46:29.937Z,2.15
2022-09-04T10:49:28.144Z,1.83
2022-09-04T10:52:06.996Z,2.20
2022-09-04T10:54:58.244Z,2.12
2022-09-04T10:57:43.216Z,2.10
2022-09-04T11:00:17.876Z,2.30
2022-09-04T11:03:21.257Z,2.10
2022-09-04T11:06:26.338Z,1.80
2022-09-04T11:09:06.011Z,1.85
2022-09-04T11:12:06.423Z,2.12
2022-09-04T11:14:55.167Z,1.62
2022-09-04T11:17:30.494Z,2.10
2022-09-04T11:20:30.114Z,1.90
2022-09-04T11:23:15.513Z,1.77
2022-09-04T11:26:24.017Z,1.80
2022-09-04T11:29:17.093Z,1.75
2022-09-04T11:32:11.979Z,4.15
2022-09-04T11:35:13.717Z,2.03
2022-09-04T11:37:59.906Z,1.90
2022-09-04T11:40:37.930Z,2.05
2022-09-04T11:43:10.764Z,1.73
2022-09-04T11:45:51.483Z,1.98
2022-09-04T11:48:41.149Z,1.87
2022-09-04T11:51:23.309Z,1.95
2022-09-04T11:54:02.147Z,2.00
2022-09-04T11:57:04.507Z,1.73
2022-09-04T12:00:01.646Z,1.98
2022-09-04T12:02:50.808Z,2.05
2022-09-04T12:05:45.668Z,1.83
2022-09-04T12:08:57.019Z,1.85
2022-09-04T12:11:39.237Z,1.75
2022-09-04T12:14:30.688Z,1.90
2022-09-04T12:19:56.163Z,1.90
2022-09-04T12:22:44.435Z,1.80
2022-09-04T12:25:38.657Z,2.10
2022-09-04T12:28:24.138Z,1.80
2022-09-04T12:31:07.878Z,2.10
2022-09-04T12:33:47.120Z,2.20
2022-09-04T12:36:38.316Z,1.73
2022-09-04T12:39:26.200Z,1.60
2022-09-04T12:42:11.375Z,1.80
2022-09-04T12:44:47.276Z,1.70
2022-09-04T12:47:45.941Z,1.55
2022-09-04T12:50:28.196Z,1.80
2022-09-04T12:52:55.035Z,1.70
2022-09-04T12:55:58.801Z,2.10
2022-09-04T12:58:37.671Z,2.03
2022-09-04T13:01:20.357Z,1.98
2022-09-04T13:03:51.215Z,1.48
2022-09-04T13:06:35.050Z,1.60
2022-09-04T13:09:23.801Z,2.08
2022-09-04T13:11:56.199Z,2.05
2022-09-04T13:14:47.249Z,1.90
2022-09-04T13:17:14.264Z,2.15
2022-09-04T13:19:47.636Z,1.80
2022-09-04T13:22:32.167Z,1.92
2022-09-04T13:25:04.885Z,1.60
2022-09-04T13:27:43.535Z,1.65
2022-09-04T13:30:25.494Z,1.60
2022-09-04T13:33:19.784Z,1.80
2022-09-04T13:36:00.903Z,1.87
2022-09-04T13:38:50.659Z,1.70
2022-09-04T13:41:30.156Z,1.95
2022-09-04T13:44:07.307Z,2.33
2022-09-04T13:46:49.275Z,2.90
2022-09-04T13:49:25.099Z,3.05
2022-09-04T13:51:59.511Z,1.83
2022-09-04T13:54:34.044Z,1.80
2022-09-04T13:57:00.712Z,1.85
2022-09-04T13:59:28.687Z,1.52
2022-09-04T14:02:00.001Z,1.90
2022-09-04T14:07:07.989Z,1.92
2022-09-04T14:09:42.885Z,2.12
2022-09-04T14:12:42.868Z,1.92
2022-09-04T14:15:27.107Z,2.00
2022-09-04T14:18:04.411Z,1.77
2022-09-04T14:20:42.381Z,2.00
2022-09-04T14:23:56.225Z,2.05
2022-09-04T14:26:55.586Z,2.30
2022-09-04T14:29:41.768Z,1.95
2022-09-04T14:32:12.861Z,1.95
2022-09-04T14:34:50.924Z,1.95
2022-09-04T14:37:30.230Z,2.00
2022-09-04T14:40:25.752Z,1.73
2022-09-04T14:43:28.473Z,1.92
2022-09-04T14:46:09.721Z,1.80
2022-09-04T14:48:41.952Z,1.60
2022-09-04T14:51:37.598Z,2.12
2022-09-04T14:54:06.665Z,1.85
2022-09-04T14:56:49.524Z,1.87
2022-09-04T14:59:24.587Z,1.73
2022-09-04T15:02:10.504Z,2.10
2022-09-04T15:05:01.440Z,1.70
2022-09-04T15:07:42.141Z,2.08
2022-09-04T15:10:28.735Z,1.83
2022-09-04T15:13:24.062Z,1.95
2022-09-04T15:16:02.403Z,1.98
2022-09-04T15:18:43.146Z,2.22
2022-09-04T15:21:21.242Z,2.27
2022-09-04T15:24:16.336Z,2.15
2022-09-04T15:27:05.752Z,2.25
2022-09-04T15:29:51.419Z,2.58
2022-09-04T15:32:26.111Z,2.20
2022-09-04T15:35:14.101Z,1.98
2022-09-04T15:37:48.310Z,2.53
2022-09-04T15:40:29.053Z,2.00
2022-09-04T15:43:04.454Z,2.30
2022-09-04T15:45:53.165Z,2.20
2022-09-04T15:48:33.973Z,2.50
2022-09-04T15:51:19.621Z,2.47
2022-09-04T15:54:15.424Z,2.28
2022-09-04T15:56:51.105Z,2.70
2022-09-04T15:59:44.248Z,2.30
2022-09-04T16:02:37.260Z,1.80
2022-09-04T16:05:25.133Z,2.90
2022-09-04T16:08:03.076Z,3.12
2022-09-04T16:10:42.766Z,2.50
2022-09-04T16:13:34.745Z,2.53
2022-09-04T16:16:27.926Z,2.95
2022-09-04T16:19:12.157Z,2.92
2022-09-04T16:22:10.746Z,2.90
2022-09-04T16:24:54.112Z,3.33
2022-09-04T16:27:25.911Z,2.95
2022-09-04T16:32:34.259Z,3.40
2022-09-04T16:35:21.539Z,3.00
2022-09-04T16:38:02.045Z,3.60
2022-09-04T16:40:48.605Z,3.40
2022-09-04T16:43:23.439Z,3.12
2022-09-04T16:46:07.057Z,3.22
2022-09-04T16:48:59.207Z,2.90
2022-09-04T16:54:24.753Z,2.90
2022-09-04T16:57:13.237Z,3.20
2022-09-04T16:59:42.629Z,2.65
2022-09-04T17:02:37.668Z,3.22
2022-09-04T17:05:23.171Z,3.78
2022-09-04T17:08:05.767Z,35.58
2022-09-04T17:10:54.671Z,18.65
2022-09-04T17:14:13.695Z,5.62
2022-09-04T17:17:29.821Z,4.93
2022-09-04T17:20:04.249Z,3.08
2022-09-04T17:22:50.215Z,3.55
2022-09-04T17:29:19.623Z,2.97
2022-09-04T17:31:58.630Z,3.40
2022-09-04T17:40:47.148Z,4.90
2022-09-04T17:40:51.459Z,5.18
2022-09-04T17:41:38.244Z,9.70
2022-09-04T17:44:02.369Z,10.10
2022-09-04T17:46:37.267Z,9.13
2022-09-04T17:49:20.447Z,4.53
2022-09-04T17:51:57.604Z,4.80
2022-09-04T17:54:28.947Z,6.50
2022-09-04T17:57:04.413Z,4.12
2022-09-04T17:59:47.720Z,5.05
2022-09-04T18:02:33.479Z,4.55
2022-09-04T18:05:19.963Z,6.25
2022-09-04T18:08:09.357Z,7.87
2022-09-04T18:10:57.703Z,6.10
2022-09-04T18:13:37.840Z,5.00
2022-09-04T18:17:11.118Z,4.82
2022-09-04T18:19:47.941Z,4.80
2022-09-04T18:22:33.394Z,5.07
2022-09-04T18:25:19.805Z,5.53
2022-09-04T18:28:15.374Z,6.03
2022-09-04T18:37:09.935Z,5.80
2022-09-04T18:37:23.201Z,7.53
2022-09-04T18:37:44.104Z,5.93
2022-09-04T18:40:08.835Z,6.18
2022-09-04T18:50:30.250Z,6.47
2022-09-04T18:50:42.919Z,6.47
2022-09-04T18:50:49.496Z,5.85
2022-09-04T18:51:30.543Z,6.00
2022-09-04T18:54:19.691Z,6.65
2022-09-04T18:56:53.051Z,7.18
2022-09-04T18:59:26.437Z,8.75
2022-09-04T19:02:18.296Z,7.57
2022-09-04T19:04:51.869Z,7.82
2022-09-04T19:07:50.446Z,7.97
2022-09-04T19:10:23.844Z,8.57
2022-09-04T19:12:50.994Z,8.40
2022-09-04T19:15:36.153Z,7.30
2022-09-04T19:18:17.283Z,7.15
2022-09-04T19:20:52.884Z,8.32
2022-09-04T19:23:29.796Z,7.07
2022-09-04T19:26:00.819Z,7.60
2022-09-04T19:28:43.883Z,8.00
2022-09-04T19:31:30.061Z,8.15
2022-09-04T19:34:38.635Z,8.90
2022-09-04T19:37:44.786Z,7.15
2022-09-04T19:46:03.557Z,8.25
2022-09-04T19:46:18.486Z,8.55
2022-09-04T19:46:50.933Z,8.85
2022-09-04T19:50:03.531Z,9.63
2022-09-04T19:53:33.023Z,8.55
2022-09-04T19:55:23.564Z,9.32
2022-09-04T19:58:06.367Z,8.55
2022-09-04T20:00:43.452Z,8.75
2022-09-04T20:03:29.316Z,8.18
2022-09-04T20:06:21.499Z,8.55
2022-09-04T20:11:43.367Z,7.78
2022-09-04T20:14:19.693Z,8.68
2022-09-04T20:16:52.654Z,9.18
2022-09-04T20:19:37.577Z,8.15
2022-09-04T20:22:25.536Z,7.57
2022-09-04T20:25:08.483Z,9.43
2022-09-04T20:27:43.565Z,8.60
2022-09-04T20:30:25.167Z,9.50
2022-09-04T20:33:12.391Z,8.60
2022-09-04T20:35:55.369Z,8.15
2022-09-04T20:38:30.675Z,8.70
2022-09-04T20:41:08.319Z,8.15
2022-09-04T20:43:54.367Z,8.00
2022-09-04T20:52:41.756Z,7.60
2022-09-04T20:52:53.857Z,8.75
2022-09-04T20:53:07.771Z,7.45
2022-09-04T20:55:31.534Z,7.78
2022-09-04T21:01:51.188Z,9.85
2022-09-04T21:03:21.230Z,8.00
2022-09-04T21:04:42.159Z,11.02
2022-09-04T21:07:17.941Z,12.85
2022-09-04T21:10:10.007Z,8.50
2022-09-04T21:12:48.544Z,28.23
2022-09-04T21:15:38.525Z,10.23
2022-09-04T21:18:18.056Z,8.50
2022-09-04T21:20:59.903Z,6.97
2022-09-04T21:23:53.032Z,10.90
2022-09-04T21:26:40.827Z,9.65
2022-09-04T21:29:21.720Z,7.37
2022-09-04T21:32:00.231Z,7.67
2022-09-04T21:34:51.936Z,8.07
2022-09-04T21:40:50.319Z,6.28
2022-09-04T21:43:35.708Z,7.12
2022-09-04T21:46:13.234Z,6.12
2022-09-04T21:49:02.696Z,7.28
2022-09-04T21:52:03.855Z,7.12
2022-09-04T21:54:38.247Z,7.80
2022-09-04T22:02:29.530Z,6.12
2022-09-04T22:02:35.290Z,6.20
2022-09-04T22:03:29.438Z,6.37
2022-09-04T22:11:24.772Z,6.82
2022-09-04T22:13:41.887Z,6.18
2022-09-04T22:13:48.427Z,6.97
2022-09-04T22:16:44.339Z,6.05
2022-09-04T22:19:34.905Z,5.87
2022-09-04T22:22:14.191Z,6.40
2022-09-04T22:25:24.075Z,7.03
2022-09-04T22:28:18.620Z,6.43
2022-09-04T22:31:31.470Z,5.65
2022-09-04T22:34:17.414Z,6.10
2022-09-04T22:37:00.967Z,6.55
2022-09-04T22:40:07.823Z,6.62
2022-09-04T22:42:43.627Z,6.50
2022-09-04T22:45:22.837Z,6.25
2022-09-04T22:48:03.299Z,6.10
2022-09-04T22:50:49.399Z,6.40
2022-09-04T22:53:31.362Z,5.72
2022-09-04T22:56:22.870Z,6.72
2022-09-04T22:59:10.522Z,6.53
2022-09-04T23:02:14.316Z,6.15
2022-09-04T23:05:12.420Z,5.97
2022-09-04T23:13:44.484Z,5.80
2022-09-04T23:13:57.109Z,5.70
2022-09-04T23:14:06.851Z,6.00
2022-09-04T23:16:53.646Z,6.47
2022-09-04T23:24:47.887Z,6.53
2022-09-04T23:26:43.054Z,5.55
2022-09-04T23:26:49.026Z,6.00
2022-09-04T23:29:09.653Z,5.53
2022-09-04T23:31:46.640Z,5.68
2022-09-04T23:34:30.028Z,6.03
2022-09-04T23:37:21.678Z,5.50
2022-09-04T23:40:16.657Z,6.22
2022-09-04T23:43:07.748Z,5.50
2022-09-04T23:46:01.981Z,5.95
2022-09-04T23:49:06.820Z,5.37
2022-09-04T23:51:57.930Z,5.05
2022-09-04T23:54:37.274Z,5.70
2022-09-04T23:57:26.728Z,4.90
